Time;durP1;ratioP1;P1;durP2;ratioP2;P2;SDS_P1;SDS_P2;PMS_P1;PMS_P2;Temp;Humidity;BMP_temperature;BMP_pressure;BME280_temperature;BME280_humidity;BME280_pressure;Samples;Min_cycle;Max_cycle;Signal;HPM_P1;HPM_P2
2024/03/23 00:00:48;;;;;;;75.85;48.33;;;;;;;;;;5141660;27;20103;-61
2024/03/23 00:03:15;;;;;;;78.70;49.67;;;;;;;;;;5150308;27;20080;-61
2024/03/23 00:05:41;;;;;;;75.07;47.38;;;;;;;;;;5152403;27;20468;-61
2024/03/23 00:08:07;;;;;;;70.07;47.08;;;;;;;;;;5142123;27;20069;-61
2024/03/23 00:10:36;;;;;;;69.93;46.70;;;;;;;;;;5130758;27;20050;-61
2024/03/23 00:13:03;;;;;;;73.05;44.88;;;;;;;;;;5152782;27;20027;-62
2024/03/23 00:15:30;;;;;;;71.07;44.63;;;;;;;;;;5152113;27;20114;-61
2024/03/23 00:17:57;;;;;;;68.85;46.33;;;;;;;;;;5151427;27;20101;-62
2024/03/23 00:20:23;;;;;;;65.68;44.97;;;;;;;;;;5146327;27;20031;-61
2024/03/23 00:22:50;;;;;;;61.45;43.15;;;;;;;;;;5150663;27;20069;-61
2024/03/23 00:25:16;;;;;;;62.58;43.28;;;;;;;;;;5153087;27;20081;-61
2024/03/23 00:27:43;;;;;;;62.85;43.55;;;;;;;;;;5152009;27;20054;-61
2024/03/23 00:30:09;;;;;;;64.10;42.92;;;;;;;;;;5130352;27;20117;-61
2024/03/23 00:32:36;;;;;;;72.53;43.13;;;;;;;;;;5150150;27;22110;-61
2024/03/23 00:35:02;;;;;;;61.55;42.40;;;;;;;;;;5125709;27;20041;-61
2024/03/23 00:37:28;;;;;;;68.53;43.70;;;;;;;;;;5153238;27;20424;-61
2024/03/23 00:39:55;;;;;;;63.92;42.10;;;;;;;;;;5151388;27;20073;-61
2024/03/23 00:42:21;;;;;;;62.53;40.88;;;;;;;;;;5152684;27;20050;-61
2024/03/23 00:44:48;;;;;;;68.53;42.55;;;;;;;;;;5148352;27;20465;-61
2024/03/23 00:47:14;;;;;;;68.90;41.63;;;;;;;;;;5151867;27;20023;-62
2024/03/23 00:49:40;;;;;;;63.10;40.35;;;;;;;;;;5149676;27;20094;-61
2024/03/23 00:52:07;;;;;;;67.60;40.67;;;;;;;;;;5139881;27;20059;-61
2024/03/23 00:54:33;;;;;;;57.72;39.70;;;;;;;;;;5153480;27;20026;-61
2024/03/23 00:56:59;;;;;;;63.10;41.42;;;;;;;;;;5134143;27;20019;-62
2024/03/23 00:59:28;;;;;;;59.63;39.78;;;;;;;;;;5153317;27;20035;-61
2024/03/23 01:01:54;;;;;;;62.30;40.55;;;;;;;;;;5147854;27;20015;-61
2024/03/23 01:04:20;;;;;;;67.43;40.78;;;;;;;;;;5144411;27;20038;-61
2024/03/23 01:06:46;;;;;;;66.18;42.20;;;;;;;;;;5153360;27;20372;-62
2024/03/23 01:09:13;;;;;;;58.97;39.88;;;;;;;;;;5149522;27;20054;-62
2024/03/23 01:11:39;;;;;;;60.83;40.00;;;;;;;;;;5152376;27;20015;-62
2024/03/23 01:14:06;;;;;;;61.53;42.05;;;;;;;;;;5133503;27;20475;-62
2024/03/23 01:16:32;;;;;;;61.00;41.97;;;;;;;;;;5152640;27;20015;-61
2024/03/23 01:18:58;;;;;;;72.20;43.42;;;;;;;;;;5147614;27;20038;-61
2024/03/23 01:21:24;;;;;;;63.60;41.47;;;;;;;;;;5149011;27;20019;-61
2024/03/23 01:23:50;;;;;;;65.57;40.40;;;;;;;;;;5129774;27;20403;-61
2024/03/23 01:26:16;;;;;;;58.70;39.53;;;;;;;;;;5157121;27;20485;-61
2024/03/23 01:28:42;;;;;;;62.38;40.63;;;;;;;;;;5131797;27;20019;-61
2024/03/23 01:31:08;;;;;;;57.90;39.00;;;;;;;;;;5156482;27;20427;-61
2024/03/23 01:33:34;;;;;;;60.45;39.10;;;;;;;;;;5143828;27;20050;-61
2024/03/23 01:36:00;;;;;;;56.60;37.33;;;;;;;;;;5156079;27;20030;-61
2024/03/23 01:38:26;;;;;;;54.03;37.03;;;;;;;;;;5155946;27;20035;-61
2024/03/23 01:40:57;;;;;;;55.58;36.65;;;;;;;;;;5151087;27;20023;-61
2024/03/23 01:43:23;;;;;;;54.08;36.13;;;;;;;;;;5154358;27;20033;-61
2024/03/23 01:45:49;;;;;;;51.13;34.55;;;;;;;;;;5151949;27;20050;-61
2024/03/23 01:48:15;;;;;;;52.10;34.55;;;;;;;;;;5149842;27;20022;-62
2024/03/23 01:50:41;;;;;;;50.65;35.15;;;;;;;;;;5146490;27;20018;-62
2024/03/23 01:53:07;;;;;;;52.25;34.65;;;;;;;;;;5154649;27;20031;-62
2024/03/23 01:55:33;;;;;;;51.70;35.47;;;;;;;;;;5152298;27;20021;-62
2024/03/23 01:57:59;;;;;;;53.03;34.67;;;;;;;;;;5153755;27;20027;-62
2024/03/23 02:00:27;;;;;;;49.17;33.60;;;;;;;;;;5156025;27;20499;-62
2024/03/23 02:02:54;;;;;;;50.22;32.90;;;;;;;;;;5155009;27;20019;-62
2024/03/23 02:05:20;;;;;;;52.90;34.17;;;;;;;;;;5152868;27;20053;-62
2024/03/23 02:07:46;;;;;;;54.15;35.13;;;;;;;;;;5145956;27;20057;-62
2024/03/23 02:10:13;;;;;;;49.70;32.47;;;;;;;;;;5143142;27;20469;-62
2024/03/23 02:12:39;;;;;;;50.00;33.10;;;;;;;;;;5154929;27;20027;-62
2024/03/23 02:15:05;;;;;;;53.53;34.38;;;;;;;;;;5154354;27;20071;-62
2024/03/23 02:17:32;;;;;;;54.97;34.80;;;;;;;;;;5153727;27;20034;-62
2024/03/23 02:20:00;;;;;;;54.28;34.38;;;;;;;;;;5154593;27;20066;-62
2024/03/23 02:22:34;;;;;;;50.45;33.22;;;;;;;;;;5151428;27;20026;-62
2024/03/23 02:25:00;;;;;;;50.88;33.42;;;;;;;;;;5147884;27;20045;-62
2024/03/23 02:27:26;;;;;;;51.22;34.13;;;;;;;;;;5153806;27;20106;-62
2024/03/23 02:29:52;;;;;;;47.38;32.47;;;;;;;;;;5155087;27;20023;-62
2024/03/23 02:32:18;;;;;;;54.95;33.80;;;;;;;;;;5154807;27;20014;-62
2024/03/23 02:34:44;;;;;;;54.10;33.53;;;;;;;;;;5148501;27;20042;-62
2024/03/23 02:37:11;;;;;;;49.50;33.10;;;;;;;;;;5149819;27;20098;-62
2024/03/23 02:39:37;;;;;;;50.38;31.63;;;;;;;;;;5153128;27;20878;-62
2024/03/23 02:42:03;;;;;;;50.67;33.97;;;;;;;;;;5153171;27;20117;-62
2024/03/23 02:44:29;;;;;;;53.03;34.08;;;;;;;;;;5139334;27;20090;-62
2024/03/23 02:46:55;;;;;;;50.80;35.28;;;;;;;;;;5145705;27;20114;-62
2024/03/23 02:49:21;;;;;;;49.55;34.60;;;;;;;;;;5148218;27;20023;-62
2024/03/23 02:51:48;;;;;;;53.58;33.53;;;;;;;;;;5151070;27;20774;-62
2024/03/23 02:54:14;;;;;;;54.63;36.38;;;;;;;;;;5151539;27;20368;-62
2024/03/23 02:56:40;;;;;;;54.28;35.08;;;;;;;;;;5149659;27;20023;-62
2024/03/23 02:59:06;;;;;;;60.00;36.55;;;;;;;;;;5153512;27;20053;-62
2024/03/23 03:01:32;;;;;;;61.70;38.53;;;;;;;;;;5146920;27;20032;-62
2024/03/23 03:03:58;;;;;;;60.50;39.17;;;;;;;;;;5155220;27;20026;-62
2024/03/23 03:06:25;;;;;;;57.42;37.25;;;;;;;;;;5145234;27;20034;-62
2024/03/23 03:08:51;;;;;;;62.47;37.60;;;;;;;;;;5146149;27;20168;-62
2024/03/23 03:11:17;;;;;;;59.35;38.20;;;;;;;;;;5155077;27;20079;-62
2024/03/23 03:13:43;;;;;;;56.35;37.95;;;;;;;;;;5136435;27;20082;-62
2024/03/23 03:16:10;;;;;;;59.50;38.83;;;;;;;;;;5153138;27;20050;-62
2024/03/23 03:18:36;;;;;;;55.83;37.58;;;;;;;;;;5143211;27;20039;-62
2024/03/23 03:21:02;;;;;;;59.67;38.78;;;;;;;;;;5152083;27;20426;-62
2024/03/23 03:23:28;;;;;;;61.88;40.67;;;;;;;;;;5153795;27;20074;-62
2024/03/23 03:25:54;;;;;;;62.88;39.67;;;;;;;;;;5154441;27;20026;-62
2024/03/23 03:28:21;;;;;;;61.60;38.42;;;;;;;;;;5125996;27;20095;-62
2024/03/23 03:30:47;;;;;;;56.20;39.65;;;;;;;;;;5149523;27;20042;-62
2024/03/23 03:33:13;;;;;;;61.13;40.75;;;;;;;;;;5139538;27;20420;-62
2024/03/23 03:35:39;;;;;;;61.17;38.88;;;;;;;;;;5148053;27;20070;-62
2024/03/23 03:38:05;;;;;;;58.30;38.90;;;;;;;;;;5151220;27;20042;-62
2024/03/23 03:40:31;;;;;;;62.90;39.00;;;;;;;;;;5151869;27;20042;-62
2024/03/23 03:42:57;;;;;;;64.88;40.33;;;;;;;;;;5145459;27;20015;-62
2024/03/23 03:45:23;;;;;;;58.58;39.38;;;;;;;;;;5152504;27;20106;-62
2024/03/23 03:47:49;;;;;;;60.85;37.83;;;;;;;;;;5141471;27;20461;-62
2024/03/23 03:50:15;;;;;;;64.13;40.33;;;;;;;;;;5152606;27;20019;-62
2024/03/23 03:52:41;;;;;;;58.28;38.35;;;;;;;;;;5130984;27;20018;-62
2024/03/23 03:55:13;;;;;;;57.63;37.72;;;;;;;;;;5152681;27;20501;-62
2024/03/23 03:57:39;;;;;;;57.70;37.53;;;;;;;;;;5154116;27;20023;-62
2024/03/23 04:00:05;;;;;;;59.33;36.88;;;;;;;;;;5154395;27;20172;-62
2024/03/23 04:02:31;;;;;;;62.22;38.35;;;;;;;;;;5152722;27;20368;-62
2024/03/23 04:04:57;;;;;;;59.53;37.67;;;;;;;;;;5147747;27;20027;-62
2024/03/23 04:07:23;;;;;;;56.42;37.10;;;;;;;;;;5147286;27;20010;-62
2024/03/23 04:09:49;;;;;;;60.45;36.58;;;;;;;;;;5140148;27;20019;-61
2024/03/23 04:12:16;;;;;;;58.63;38.78;;;;;;;;;;5144614;27;20041;-62
2024/03/23 04:14:42;;;;;;;64.03;39.72;;;;;;;;;;5151224;27;20467;-61
2024/03/23 04:17:08;;;;;;;64.13;38.63;;;;;;;;;;5144290;27;20023;-61
2024/03/23 04:19:34;;;;;;;58.60;41.08;;;;;;;;;;5152875;27;20348;-61
2024/03/23 04:22:00;;;;;;;57.83;39.70;;;;;;;;;;5153981;27;20101;-61
2024/03/23 04:24:26;;;;;;;62.03;40.70;;;;;;;;;;5149333;27;20053;-61
2024/03/23 04:26:52;;;;;;;59.28;38.63;;;;;;;;;;5153103;27;20118;-61
2024/03/23 04:29:18;;;;;;;58.78;37.47;;;;;;;;;;5152718;27;20067;-61
2024/03/23 04:31:44;;;;;;;57.10;37.75;;;;;;;;;;5147347;27;20101;-61
2024/03/23 04:34:10;;;;;;;56.53;38.50;;;;;;;;;;5153777;27;20038;-62
2024/03/23 04:36:36;;;;;;;59.13;38.70;;;;;;;;;;5145488;27;20494;-61
2024/03/23 04:39:02;;;;;;;63.28;39.42;;;;;;;;;;5153266;27;20050;-62
2024/03/23 04:41:28;;;;;;;66.40;40.03;;;;;;;;;;5146971;27;20034;-62
2024/03/23 04:43:54;;;;;;;58.78;38.83;;;;;;;;;;5152430;27;20023;-62
2024/03/23 04:55:31;;;;;;;57.63;38.45;;;;;;;;;;5148421;27;20025;-62
2024/03/23 04:57:57;;;;;;;51.42;37.15;;;;;;;;;;5155728;27;20163;-63
2024/03/23 05:00:33;;;;;;;58.35;37.38;;;;;;;;;;5154936;27;20039;-62
2024/03/23 05:02:59;;;;;;;49.00;35.05;;;;;;;;;;5155851;27;20023;-62
2024/03/23 05:05:25;;;;;;;52.63;35.28;;;;;;;;;;5151713;27;20118;-63
2024/03/23 05:07:51;;;;;;;52.28;35.95;;;;;;;;;;5148712;27;20027;-62
2024/03/23 05:10:17;;;;;;;50.08;34.67;;;;;;;;;;5157494;27;20015;-61
2024/03/23 05:12:45;;;;;;;61.20;38.70;;;;;;;;;;5149349;27;20025;-61
2024/03/23 05:15:11;;;;;;;55.85;37.30;;;;;;;;;;5157573;27;20338;-61
2024/03/23 05:17:37;;;;;;;55.47;36.30;;;;;;;;;;5156633;27;20037;-61
2024/03/23 05:20:03;;;;;;;58.00;37.08;;;;;;;;;;5152959;27;20093;-61
2024/03/23 05:22:30;;;;;;;58.60;38.05;;;;;;;;;;5145771;27;20507;-61
2024/03/23 05:24:56;;;;;;;56.83;36.75;;;;;;;;;;5155435;27;20051;-61
2024/03/23 05:27:22;;;;;;;56.00;37.50;;;;;;;;;;5155493;27;20034;-61
2024/03/23 05:29:49;;;;;;;53.25;35.80;;;;;;;;;;5148427;27;20023;-61
2024/03/23 05:32:15;;;;;;;54.65;36.15;;;;;;;;;;5136092;27;20089;-61
2024/03/23 05:34:40;;;;;;;52.95;35.85;;;;;;;;;;5144134;27;20025;-61
2024/03/23 05:37:06;;;;;;;57.13;37.67;;;;;;;;;;5131905;27;20023;-61
2024/03/23 05:39:33;;;;;;;55.60;35.70;;;;;;;;;;5146362;27;20108;-61
2024/03/23 05:41:58;;;;;;;55.80;37.13;;;;;;;;;;5153571;27;20038;-62
2024/03/23 05:44:24;;;;;;;58.53;37.67;;;;;;;;;;5153744;27;20126;-62
2024/03/23 05:46:50;;;;;;;52.20;36.42;;;;;;;;;;5151790;27;20487;-62
2024/03/23 05:49:17;;;;;;;56.58;36.00;;;;;;;;;;5137514;27;20031;-62
2024/03/23 05:51:44;;;;;;;52.80;36.47;;;;;;;;;;5137665;27;20403;-62
2024/03/23 05:54:10;;;;;;;53.75;36.88;;;;;;;;;;5156404;27;20420;-61
2024/03/23 05:56:36;;;;;;;54.05;37.08;;;;;;;;;;5135434;27;20027;-61
2024/03/23 05:59:03;;;;;;;62.92;38.17;;;;;;;;;;5154087;27;20396;-61
2024/03/23 06:01:32;;;;;;;54.80;36.80;;;;;;;;;;5149847;27;20026;-61
2024/03/23 06:03:58;;;;;;;58.17;38.65;;;;;;;;;;5151726;27;20117;-61
2024/03/23 06:06:24;;;;;;;56.95;37.35;;;;;;;;;;5155965;27;20171;-61
2024/03/23 06:08:50;;;;;;;55.03;36.17;;;;;;;;;;5153402;27;20031;-61
2024/03/23 06:11:16;;;;;;;59.47;37.53;;;;;;;;;;5154063;27;20328;-61
2024/03/23 06:13:42;;;;;;;56.10;35.00;;;;;;;;;;5155701;27;20025;-61
2024/03/23 06:16:08;;;;;;;60.05;37.83;;;;;;;;;;5150060;27;20042;-61
2024/03/23 06:18:34;;;;;;;55.78;36.63;;;;;;;;;;5146233;27;20038;-61
2024/03/23 06:21:00;;;;;;;56.55;36.75;;;;;;;;;;5125435;27;20081;-61
2024/03/23 06:23:32;;;;;;;55.35;34.17;;;;;;;;;;5155869;27;20050;-62
2024/03/23 06:25:58;;;;;;;58.28;36.83;;;;;;;;;;5153911;27;20026;-61
2024/03/23 06:28:25;;;;;;;52.38;34.75;;;;;;;;;;5156141;27;20049;-61
2024/03/23 06:30:51;;;;;;;56.10;36.40;;;;;;;;;;5148655;27;20369;-62
2024/03/23 06:33:17;;;;;;;57.15;34.92;;;;;;;;;;5144576;27;20178;-61
2024/03/23 06:35:43;;;;;;;55.30;34.80;;;;;;;;;;5140697;27;20012;-61
2024/03/23 06:38:09;;;;;;;55.25;33.45;;;;;;;;;;5148944;27;20057;-61
2024/03/23 06:40:36;;;;;;;49.95;34.95;;;;;;;;;;5125113;27;20054;-61
2024/03/23 06:43:02;;;;;;;56.33;36.58;;;;;;;;;;5136187;27;20046;-61
2024/03/23 06:45:28;;;;;;;50.80;35.60;;;;;;;;;;5153701;27;20094;-62
2024/03/23 06:47:55;;;;;;;51.90;34.75;;;;;;;;;;5149704;27;20031;-62
2024/03/23 06:50:22;;;;;;;55.58;35.15;;;;;;;;;;5153496;27;20026;-61
2024/03/23 06:52:48;;;;;;;54.78;35.58;;;;;;;;;;5142397;27;20035;-61
2024/03/23 06:55:14;;;;;;;56.28;35.40;;;;;;;;;;5154881;27;20037;-61
2024/03/23 06:57:40;;;;;;;53.47;33.10;;;;;;;;;;5131593;27;20031;-58
2024/03/23 07:00:09;;;;;;;45.55;32.38;;;;;;;;;;5146869;27;20141;-60
2024/03/23 07:02:35;;;;;;;41.47;28.33;;;;;;;;;;5151955;27;20050;-60
2024/03/23 07:05:03;;;;;;;50.85;30.67;;;;;;;;;;5132965;27;20117;-66
2024/03/23 07:07:30;;;;;;;38.78;26.70;;;;;;;;;;5153050;27;20048;-61
2024/03/23 07:09:56;;;;;;;37.78;26.92;;;;;;;;;;5151173;27;20023;-60
2024/03/23 07:12:22;;;;;;;39.88;26.27;;;;;;;;;;5136835;27;20015;-60
2024/03/23 07:14:48;;;;;;;38.53;25.23;;;;;;;;;;5140778;27;20023;-60
2024/03/23 07:17:14;;;;;;;34.88;23.55;;;;;;;;;;5155099;27;20023;-59
2024/03/23 07:19:40;;;;;;;31.90;21.90;;;;;;;;;;5152783;27;20507;-59
2024/03/23 07:22:06;;;;;;;34.25;23.30;;;;;;;;;;5150280;27;20018;-59
2024/03/23 07:24:32;;;;;;;34.35;23.13;;;;;;;;;;5153089;27;20039;-60
2024/03/23 07:26:58;;;;;;;29.60;21.50;;;;;;;;;;5144970;27;20075;-61
2024/03/23 07:29:24;;;;;;;30.05;22.15;;;;;;;;;;5153545;27;20030;-60
2024/03/23 07:31:50;;;;;;;28.90;21.23;;;;;;;;;;5143504;27;20472;-59
2024/03/23 07:34:16;;;;;;;28.55;20.92;;;;;;;;;;5138600;27;20165;-57
2024/03/23 07:36:42;;;;;;;32.15;21.42;;;;;;;;;;5149922;27;20022;-59
2024/03/23 07:39:08;;;;;;;29.13;20.77;;;;;;;;;;5152496;27;20035;-60
2024/03/23 07:41:35;;;;;;;26.67;19.20;;;;;;;;;;5150414;27;20038;-61
2024/03/23 07:44:01;;;;;;;25.77;18.23;;;;;;;;;;5148416;27;20046;-63
2024/03/23 07:46:27;;;;;;;30.23;19.33;;;;;;;;;;5151149;27;20390;-61
2024/03/23 07:48:53;;;;;;;24.80;17.05;;;;;;;;;;5153953;27;20026;-65
2024/03/23 07:51:21;;;;;;;24.25;16.98;;;;;;;;;;5150444;27;20018;-59
2024/03/23 07:53:48;;;;;;;25.38;17.45;;;;;;;;;;5138339;27;20032;-59
2024/03/23 07:56:15;;;;;;;22.02;15.90;;;;;;;;;;5142908;27;20022;-60
2024/03/23 07:58:41;;;;;;;22.65;16.52;;;;;;;;;;5152349;27;20038;-60
2024/03/23 08:01:08;;;;;;;21.13;15.55;;;;;;;;;;5143197;27;20027;-60
2024/03/23 08:03:34;;;;;;;23.50;15.73;;;;;;;;;;5144726;27;20035;-60
2024/03/23 08:06:17;;;;;;;21.80;14.82;;;;;;;;;;5122070;27;20035;-60
2024/03/23 08:08:45;;;;;;;25.15;16.95;;;;;;;;;;5148597;27;20333;-68
2024/03/23 08:11:11;;;;;;;24.40;16.83;;;;;;;;;;5140348;27;20571;-68
2024/03/23 08:13:39;;;;;;;26.75;17.98;;;;;;;;;;5148511;27;20166;-68
2024/03/23 08:16:05;;;;;;;26.27;18.13;;;;;;;;;;5147991;27;20067;-68
2024/03/23 08:18:31;;;;;;;24.88;17.13;;;;;;;;;;5148378;27;20049;-69
2024/03/23 08:21:01;;;;;;;26.52;18.40;;;;;;;;;;5146382;27;20029;-68
2024/03/23 08:23:30;;;;;;;26.00;18.63;;;;;;;;;;5145297;27;20103;-68
2024/03/23 08:26:03;;;;;;;23.27;18.38;;;;;;;;;;5135276;27;20022;-69
2024/03/23 08:28:29;;;;;;;23.80;16.92;;;;;;;;;;5153219;27;20034;-69
2024/03/23 08:30:55;;;;;;;22.23;17.30;;;;;;;;;;5153132;27;20023;-69
2024/03/23 08:33:22;;;;;;;22.08;16.35;;;;;;;;;;5143610;27;20107;-69
2024/03/23 08:35:55;;;;;;;20.10;16.38;;;;;;;;;;5131823;27;20500;-69
2024/03/23 08:38:21;;;;;;;20.23;16.10;;;;;;;;;;5120883;27;20035;-68
2024/03/23 08:40:47;;;;;;;22.50;16.00;;;;;;;;;;5149547;27;20178;-68
2024/03/23 08:43:13;;;;;;;21.30;15.88;;;;;;;;;;5152038;27;20031;-68
2024/03/23 08:45:39;;;;;;;25.98;16.65;;;;;;;;;;5152604;27;20101;-69
2024/03/23 08:48:05;;;;;;;21.27;15.05;;;;;;;;;;5153488;27;20018;-69
2024/03/23 08:50:31;;;;;;;23.27;15.45;;;;;;;;;;5150727;27;20384;-69
2024/03/23 08:52:57;;;;;;;25.23;16.92;;;;;;;;;;5152913;27;20023;-69
2024/03/23 08:55:23;;;;;;;22.25;16.38;;;;;;;;;;5153380;27;20026;-69
2024/03/23 08:57:49;;;;;;;25.80;16.63;;;;;;;;;;5152296;27;20027;-70
2024/03/23 09:00:15;;;;;;;19.85;15.85;;;;;;;;;;5142992;27;20168;-69
2024/03/23 09:02:41;;;;;;;21.15;15.30;;;;;;;;;;5150631;27;20014;-69
2024/03/23 09:05:07;;;;;;;25.50;16.42;;;;;;;;;;5148222;27;20030;-69
2024/03/23 09:07:33;;;;;;;21.33;15.73;;;;;;;;;;5145489;27;20384;-69
2024/03/23 09:09:59;;;;;;;23.50;15.93;;;;;;;;;;5153379;27;20011;-68
2024/03/23 09:12:25;;;;;;;19.10;14.82;;;;;;;;;;5151015;27;20148;-68
2024/03/23 09:14:53;;;;;;;20.83;16.02;;;;;;;;;;5134173;27;20114;-68
2024/03/23 09:17:19;;;;;;;20.23;14.18;;;;;;;;;;5148912;27;20067;-68
2024/03/23 09:19:45;;;;;;;16.10;13.05;;;;;;;;;;5153274;27;20038;-68
2024/03/23 09:22:11;;;;;;;20.20;14.18;;;;;;;;;;5138355;27;20030;-68
2024/03/23 09:24:37;;;;;;;18.30;13.07;;;;;;;;;;5145330;27;20059;-68
2024/03/23 09:27:03;;;;;;;16.50;13.25;;;;;;;;;;5150302;27;20083;-68
2024/03/23 09:29:29;;;;;;;17.65;12.52;;;;;;;;;;5143428;27;20020;-68
2024/03/23 09:31:56;;;;;;;15.52;13.40;;;;;;;;;;5142992;27;20110;-67
2024/03/23 09:34:22;;;;;;;18.92;13.23;;;;;;;;;;5143252;27;20505;-68
2024/03/23 09:36:51;;;;;;;17.45;14.13;;;;;;;;;;5141544;27;20027;-67
2024/03/23 09:39:17;;;;;;;18.48;13.55;;;;;;;;;;5139760;27;20100;-67
2024/03/23 09:41:43;;;;;;;17.13;13.05;;;;;;;;;;5150981;27;20018;-68
2024/03/23 09:44:09;;;;;;;20.90;13.95;;;;;;;;;;5141869;27;20099;-63
2024/03/23 09:46:36;;;;;;;17.50;13.13;;;;;;;;;;5149726;27;20110;-63
2024/03/23 09:49:04;;;;;;;18.65;14.02;;;;;;;;;;5148040;27;20344;-62
2024/03/23 09:51:30;;;;;;;19.10;13.30;;;;;;;;;;5156814;27;20109;-62
2024/03/23 09:53:57;;;;;;;20.67;13.98;;;;;;;;;;5136613;27;20027;-62
2024/03/23 09:56:23;;;;;;;21.88;15.27;;;;;;;;;;5155485;27;20039;-62
2024/03/23 09:58:50;;;;;;;19.98;13.43;;;;;;;;;;5156136;27;20126;-62
2024/03/23 10:01:16;;;;;;;20.98;14.40;;;;;;;;;;5148106;27;20026;-64
2024/03/23 10:03:47;;;;;;;20.17;14.05;;;;;;;;;;5152974;27;20613;-65
2024/03/23 10:06:13;;;;;;;16.17;13.02;;;;;;;;;;5152994;27;20098;-64
2024/03/23 10:08:39;;;;;;;21.67;15.10;;;;;;;;;;5150686;27;20458;-64
2024/03/23 10:11:15;;;;;;;21.42;14.77;;;;;;;;;;5154690;27;20054;-63
2024/03/23 10:13:42;;;;;;;18.25;13.35;;;;;;;;;;5143034;27;20050;-64
2024/03/23 10:16:08;;;;;;;21.55;13.98;;;;;;;;;;5152909;27;20026;-64
2024/03/23 10:18:37;;;;;;;16.55;13.30;;;;;;;;;;5153036;27;20019;-64
2024/03/23 10:21:08;;;;;;;20.70;13.80;;;;;;;;;;5123090;27;20031;-65
2024/03/23 10:23:35;;;;;;;18.25;13.68;;;;;;;;;;5145710;27;20101;-64
2024/03/23 10:26:13;;;;;;;19.40;14.18;;;;;;;;;;5151823;27;20107;-64
2024/03/23 10:28:52;;;;;;;22.55;13.88;;;;;;;;;;5149491;27;20039;-64
2024/03/23 10:31:21;;;;;;;20.75;13.57;;;;;;;;;;5133104;27;20118;-63
2024/03/23 10:33:48;;;;;;;18.27;13.60;;;;;;;;;;5152882;27;20022;-63
2024/03/23 10:36:14;;;;;;;21.13;14.35;;;;;;;;;;5150264;27;20031;-65
2024/03/23 10:38:47;;;;;;;22.88;14.52;;;;;;;;;;5153062;27;20495;-64
2024/03/23 10:41:13;;;;;;;20.15;14.88;;;;;;;;;;5154734;27;20396;-64
2024/03/23 10:43:39;;;;;;;19.80;13.35;;;;;;;;;;5129908;27;20071;-64
2024/03/23 10:46:06;;;;;;;21.40;13.52;;;;;;;;;;5152312;27;20051;-64
2024/03/23 10:48:33;;;;;;;19.90;14.50;;;;;;;;;;5145374;27;20042;-64
2024/03/23 10:50:59;;;;;;;17.90;14.07;;;;;;;;;;5155455;27;20428;-64
2024/03/23 10:53:29;;;;;;;22.33;15.77;;;;;;;;;;5151347;27;20067;-64
2024/03/23 10:55:56;;;;;;;22.67;14.85;;;;;;;;;;5152960;27;20496;-64
2024/03/23 10:58:28;;;;;;;23.42;14.48;;;;;;;;;;5153520;27;20163;-64
2024/03/23 11:00:54;;;;;;;18.45;15.25;;;;;;;;;;5143947;27;20027;-64
2024/03/23 11:03:30;;;;;;;23.00;15.80;;;;;;;;;;5127909;27;20505;-64
2024/03/23 11:05:56;;;;;;;19.85;15.40;;;;;;;;;;5146241;27;20456;-64
2024/03/23 11:08:43;;;;;;;22.75;15.38;;;;;;;;;;5142291;27;20034;-64
2024/03/23 11:11:13;;;;;;;20.33;14.73;;;;;;;;;;5151600;27;20347;-65
2024/03/23 11:13:39;;;;;;;24.27;15.32;;;;;;;;;;5152214;27;20132;-64
2024/03/23 11:16:22;;;;;;;20.10;15.80;;;;;;;;;;5148441;27;20031;-64
2024/03/23 11:18:48;;;;;;;22.92;16.10;;;;;;;;;;5148343;27;20037;-64
2024/03/23 11:21:34;;;;;;;23.77;16.05;;;;;;;;;;5154552;27;20031;-64
2024/03/23 11:24:15;;;;;;;22.48;15.18;;;;;;;;;;5154274;27;20042;-64
2024/03/23 11:26:41;;;;;;;19.45;13.80;;;;;;;;;;5153286;27;20035;-63
2024/03/23 11:29:11;;;;;;;20.33;16.10;;;;;;;;;;5117575;27;20023;-63
2024/03/23 11:31:37;;;;;;;21.13;14.82;;;;;;;;;;5153009;27;20087;-64
2024/03/23 11:34:06;;;;;;;20.05;14.30;;;;;;;;;;5133942;27;20023;-63
2024/03/23 11:36:33;;;;;;;19.83;14.65;;;;;;;;;;5135523;27;20026;-63
2024/03/23 11:38:59;;;;;;;22.17;13.80;;;;;;;;;;5147253;27;20377;-63
2024/03/23 11:41:25;;;;;;;22.73;13.60;;;;;;;;;;5149192;27;20096;-64
2024/03/23 11:43:51;;;;;;;23.35;13.48;;;;;;;;;;5124521;27;20023;-63
2024/03/23 11:46:24;;;;;;;17.35;12.80;;;;;;;;;;5136991;27;20446;-64
2024/03/23 11:48:53;;;;;;;19.17;12.43;;;;;;;;;;5153375;27;20380;-63
2024/03/23 11:51:20;;;;;;;20.67;14.27;;;;;;;;;;5153158;27;20019;-63
2024/03/23 11:53:46;;;;;;;20.80;12.65;;;;;;;;;;5133999;27;20015;-64
2024/03/23 11:56:12;;;;;;;15.70;11.55;;;;;;;;;;5148060;27;20050;-64
2024/03/23 11:58:38;;;;;;;18.02;11.45;;;;;;;;;;5136882;27;20029;-64
2024/03/23 12:01:05;;;;;;;16.85;12.05;;;;;;;;;;5143286;27;20031;-63
2024/03/23 12:03:33;;;;;;;16.38;12.00;;;;;;;;;;5138665;27;20066;-63
2024/03/23 12:06:01;;;;;;;16.45;10.48;;;;;;;;;;5153067;27;20026;-63
2024/03/23 12:08:34;;;;;;;15.90;10.65;;;;;;;;;;5152283;27;20018;-64
2024/03/23 12:11:06;;;;;;;15.88;9.35;;;;;;;;;;5135508;27;20021;-63
2024/03/23 12:13:32;;;;;;;19.00;10.82;;;;;;;;;;5135076;27;20019;-64
2024/03/23 12:16:18;;;;;;;14.50;9.48;;;;;;;;;;5147234;27;20037;-63
2024/03/23 12:18:45;;;;;;;14.13;10.10;;;;;;;;;;5136039;27;20029;-64
2024/03/23 12:21:11;;;;;;;12.60;9.35;;;;;;;;;;5136681;27;20079;-63
2024/03/23 12:23:40;;;;;;;14.77;10.10;;;;;;;;;;5132749;27;20492;-65
2024/03/23 12:26:06;;;;;;;12.65;9.40;;;;;;;;;;5140458;27;20015;-63
2024/03/23 12:28:32;;;;;;;14.10;10.32;;;;;;;;;;5152181;27;20025;-63
2024/03/23 12:30:58;;;;;;;16.08;10.82;;;;;;;;;;5153808;27;20026;-63
2024/03/23 12:33:24;;;;;;;13.68;9.68;;;;;;;;;;5153057;27;20046;-64
2024/03/23 12:35:50;;;;;;;13.38;9.13;;;;;;;;;;5145927;27;20440;-63
2024/03/23 12:38:17;;;;;;;15.23;8.85;;;;;;;;;;5137369;27;20026;-63
2024/03/23 12:40:47;;;;;;;15.20;9.38;;;;;;;;;;5143006;27;20045;-64
2024/03/23 12:43:13;;;;;;;15.00;9.52;;;;;;;;;;5152428;27;20026;-64
2024/03/23 12:45:39;;;;;;;10.85;7.43;;;;;;;;;;5148910;27;20544;-63
2024/03/23 12:48:05;;;;;;;9.75;6.88;;;25.60;99.90;;;;;;5143810;27;20023;-63
2024/03/23 12:50:31;;;;;;;15.95;8.48;;;24.60;99.90;;;;;;5149220;27;20023;-64
2024/03/23 12:52:57;;;;;;;13.45;7.90;;;;;;;;;;5153345;27;20071;-63
2024/03/23 12:55:23;;;;;;;14.50;8.23;;;;;;;;;;5152588;27;20336;-63
2024/03/23 12:57:49;;;;;;;12.55;9.02;;;;;;;;;;5127641;27;20026;-64
2024/03/23 13:00:18;;;;;;;10.60;8.25;;;;;;;;;;5151409;27;20027;-64
2024/03/23 13:02:45;;;;;;;14.27;8.98;;;;;;;;;;5127234;27;20019;-63
2024/03/23 13:05:11;;;;;;;14.77;8.27;;;;;;;;;;5139058;27;20027;-65
2024/03/23 13:07:38;;;;;;;11.98;8.45;;;;;;;;;;5139116;27;20079;-65
2024/03/23 13:10:16;;;;;;;17.40;8.98;;;;;;;;;;5135215;27;20034;-64
2024/03/23 13:12:42;;;;;;;12.43;8.55;;;;;;;;;;5153345;27;20050;-64
2024/03/23 13:15:09;;;;;;;12.45;8.40;;;;;;;;;;5152832;27;20030;-64
2024/03/23 13:17:35;;;;;;;12.00;7.95;;;;;;;;;;5148802;27;20042;-69
2024/03/23 13:20:00;;;;;;;13.23;7.65;;;;;;;;;;5155215;27;20042;-69
2024/03/23 13:22:26;;;;;;;18.55;13.40;;;;;;;;;;5156719;27;20083;-69
2024/03/23 13:24:52;;;;;;;25.25;18.23;;;;;;;;;;5155273;27;20555;-70
2024/03/23 13:27:19;;;;;;;32.20;23.63;;;;;;;;;;5153355;27;20019;-70
2024/03/23 13:29:46;;;;;;;33.33;24.85;;;;;;;;;;5138623;27;20177;-70
2024/03/23 13:32:13;;;;;;;36.63;26.23;;;;;;;;;;5155276;27;20110;-69
2024/03/23 13:34:40;;;;;;;35.92;25.65;;;;;;;;;;5130142;27;20030;-70
2024/03/23 13:37:07;;;;;;;28.45;21.25;;;;;;;;;;5131525;27;20156;-70
2024/03/23 13:39:33;;;;;;;16.40;11.48;;;;;;;;;;5142597;27;20038;-70
2024/03/23 13:41:59;;;;;;;13.77;8.40;;;;;;;;;;5149840;27;20023;-70
2024/03/23 13:44:25;;;;;;;8.93;7.82;;;;;;;;;;5137577;27;20047;-70
2024/03/23 13:46:52;;;;;;;27.20;19.23;;;;;;;;;;5157268;27;20027;-70
2024/03/23 13:49:32;;;;;;;31.73;23.60;;;;;;;;;;5157079;27;20480;-70
2024/03/23 13:51:58;;;;;;;33.58;23.42;;;;;;;;;;5156673;27;20102;-70
2024/03/23 13:54:28;;;;;;;29.42;20.75;;;;;;;;;;5152198;27;20038;-69
2024/03/23 13:56:57;;;;;;;30.42;21.70;;;;;;;;;;5149219;27;20027;-70
2024/03/23 13:59:23;;;;;;;29.33;21.45;;;;;;;;;;5128659;27;20576;-69
2024/03/23 14:01:50;;;;;;;34.13;24.90;;;;;;;;;;5156091;27;20025;-70
2024/03/23 14:04:16;;;;;;;30.63;23.60;;;;;;;;;;5153584;27;20031;-69
2024/03/23 14:06:45;;;;;;;35.33;24.35;;;;;;;;;;5151366;27;20023;-69
2024/03/23 14:09:11;;;;;;;30.85;21.42;;;;;;;;;;5156476;27;20027;-69
2024/03/23 14:11:37;;;;;;;27.15;20.95;;;;;;;;;;5149475;27;20034;-69
2024/03/23 14:14:04;;;;;;;27.77;20.95;;;;;;;;;;5141673;27;20014;-69
2024/03/23 14:16:33;;;;;;;23.65;19.05;;;;;;;;;;5154971;27;20022;-69
2024/03/23 14:18:59;;;;;;;23.35;18.50;;;;;;;;;;5156232;27;20111;-70
2024/03/23 14:21:25;;;;;;;28.35;19.00;;;;;;;;;;5143208;27;20019;-70
2024/03/23 14:23:51;;;;;;;26.42;18.70;;;;;;;;;;5134035;27;20129;-69